Allen's Hourly Summary for Sunday, March 19, 2017
Hour Temp
(f)
RH
(%)
Solar Rad.
(MJ/m2)
Rainfall
(in)
Wind
(mph)
3/19/2017 12:00 AM 65 78 0 0 0.39
3/19/2017 1:00 AM 64 81 0 0 1.14
3/19/2017 2:00 AM 63 84 0 0 0.52
3/19/2017 3:00 AM 62 87 0 0 0.63
3/19/2017 4:00 AM 62 88 0 0 0.66
3/19/2017 5:00 AM 61 91 0 0 1.46
3/19/2017 6:00 AM 60 90 0 0 1.53
3/19/2017 7:00 AM 59 91 0 0 1.06
3/19/2017 8:00 AM 59 93 0.03 0 0.63
3/19/2017 9:00 AM 62 86 0.54 0 1.27
3/19/2017 10:00 AM 67 74 1.29 0 2.97
3/19/2017 11:00 AM 71 66 1.93 0 3.42
3/19/2017 12:00 PM 74 60 2.63 0 4.34
3/19/2017 1:00 PM 75 58 2.93 0 6.14
3/19/2017 2:00 PM 76 54 3.07 0 6.95
3/19/2017 3:00 PM 78 49 2.95 0 7.21
3/19/2017 4:00 PM 79 48 2.5 0 7.49
3/19/2017 5:00 PM 80 47 1.83 0 6.95
3/19/2017 6:00 PM 79 47 1.06 0 7.13
3/19/2017 7:00 PM 78 49 0.32 0 7.28
3/19/2017 8:00 PM 75 54 0.04 0 6.93
3/19/2017 9:00 PM 73 59 0 0 5.76
3/19/2017 10:00 PM 72 62 0 0 5.51
3/19/2017 11:00 PM 71 61 0 0 5.51
Data Summary 69 69 21.12 0.00 3.87